sensor_id;sensor_type;location;lat;lon;timestamp;P1;durP1;ratioP1;P2;durP2;ratioP2
42104;SDS011;61464;51.472;5.712;2022-11-03T00:02:03;18.20;;;2.17;;
42104;SDS011;61464;51.472;5.712;2022-11-03T00:04:29;12.57;;;2.38;;
42104;SDS011;61464;51.472;5.712;2022-11-03T00:06:55;9.40;;;2.28;;
42104;SDS011;61464;51.472;5.712;2022-11-03T00:09:21;10.32;;;2.28;;
42104;SDS011;61464;51.472;5.712;2022-11-03T00:11:48;12.57;;;2.30;;
42104;SDS011;61464;51.472;5.712;2022-11-03T00:14:15;13.00;;;2.13;;
42104;SDS011;61464;51.472;5.712;2022-11-03T00:16:42;15.02;;;2.25;;
42104;SDS011;61464;51.472;5.712;2022-11-03T00:19:09;8.48;;;1.85;;
42104;SDS011;61464;51.472;5.712;2022-11-03T00:21:36;9.80;;;1.95;;
42104;SDS011;61464;51.472;5.712;2022-11-03T00:24:02;10.57;;;1.67;;
42104;SDS011;61464;51.472;5.712;2022-11-03T00:26:29;10.35;;;2.20;;
42104;SDS011;61464;51.472;5.712;2022-11-03T00:28:58;10.68;;;2.00;;
42104;SDS011;61464;51.472;5.712;2022-11-03T00:31:27;9.02;;;2.20;;
42104;SDS011;61464;51.472;5.712;2022-11-03T00:33:55;15.60;;;2.50;;
42104;SDS011;61464;51.472;5.712;2022-11-03T00:36:23;8.70;;;2.00;;
42104;SDS011;61464;51.472;5.712;2022-11-03T00:38:51;9.98;;;1.83;;
42104;SDS011;61464;51.472;5.712;2022-11-03T00:41:18;12.40;;;2.33;;
42104;SDS011;61464;51.472;5.712;2022-11-03T00:43:45;9.30;;;2.22;;
42104;SDS011;61464;51.472;5.712;2022-11-03T00:46:11;10.95;;;2.35;;
42104;SDS011;61464;51.472;5.712;2022-11-03T00:48:37;12.50;;;1.92;;
42104;SDS011;61464;51.472;5.712;2022-11-03T00:51:05;10.35;;;2.08;;
42104;SDS011;61464;51.472;5.712;2022-11-03T01:26:57;13.00;;;2.00;;
42104;SDS011;61464;51.472;5.712;2022-11-03T01:29:22;9.02;;;1.95;;
42104;SDS011;61464;51.472;5.712;2022-11-03T01:31:48;20.33;;;2.83;;
42104;SDS011;61464;51.472;5.712;2022-11-03T01:34:15;11.65;;;2.03;;
42104;SDS011;61464;51.472;5.712;2022-11-03T01:36:43;7.78;;;1.80;;
42104;SDS011;61464;51.472;5.712;2022-11-03T01:39:10;15.10;;;2.30;;
42104;SDS011;61464;51.472;5.712;2022-11-03T01:41:42;10.75;;;1.83;;
42104;SDS011;61464;51.472;5.712;2022-11-03T01:49:24;15.95;;;2.60;;
42104;SDS011;61464;51.472;5.712;2022-11-03T01:52:48;9.55;;;2.20;;
42104;SDS011;61464;51.472;5.712;2022-11-03T01:55:22;11.02;;;1.92;;
42104;SDS011;61464;51.472;5.712;2022-11-03T01:58:00;12.05;;;1.77;;
42104;SDS011;61464;51.472;5.712;2022-11-03T02:00:34;10.52;;;1.70;;
42104;SDS011;61464;51.472;5.712;2022-11-03T02:03:00;9.30;;;2.20;;
42104;SDS011;61464;51.472;5.712;2022-11-03T02:05:27;8.23;;;1.80;;
42104;SDS011;61464;51.472;5.712;2022-11-03T02:10:47;11.65;;;1.80;;
42104;SDS011;61464;51.472;5.712;2022-11-03T02:13:21;9.65;;;1.70;;
42104;SDS011;61464;51.472;5.712;2022-11-03T02:15:52;10.48;;;1.60;;
42104;SDS011;61464;51.472;5.712;2022-11-03T02:18:27;7.78;;;1.85;;
42104;SDS011;61464;51.472;5.712;2022-11-03T02:24:08;15.02;;;2.30;;
42104;SDS011;61464;51.472;5.712;2022-11-03T02:26:56;12.50;;;2.22;;
42104;SDS011;61464;51.472;5.712;2022-11-03T02:29:22;8.55;;;2.03;;
42104;SDS011;61464;51.472;5.712;2022-11-03T02:31:48;8.82;;;2.60;;
42104;SDS011;61464;51.472;5.712;2022-11-03T02:34:28;14.48;;;2.17;;
42104;SDS011;61464;51.472;5.712;2022-11-03T02:37:11;15.05;;;2.10;;
42104;SDS011;61464;51.472;5.712;2022-11-03T02:39:47;12.13;;;2.50;;
42104;SDS011;61464;51.472;5.712;2022-11-03T02:42:45;7.95;;;1.83;;
42104;SDS011;61464;51.472;5.712;2022-11-03T02:45:16;10.57;;;2.05;;
42104;SDS011;61464;51.472;5.712;2022-11-03T02:47:46;7.30;;;1.83;;
42104;SDS011;61464;51.472;5.712;2022-11-03T02:50:15;10.40;;;2.47;;
42104;SDS011;61464;51.472;5.712;2022-11-03T02:52:42;12.32;;;2.15;;
42104;SDS011;61464;51.472;5.712;2022-11-03T03:00:48;11.27;;;2.03;;
42104;SDS011;61464;51.472;5.712;2022-11-03T03:03:29;10.23;;;1.90;;
42104;SDS011;61464;51.472;5.712;2022-11-03T03:06:03;13.88;;;2.33;;
42104;SDS011;61464;51.472;5.712;2022-11-03T03:08:43;8.05;;;2.08;;
42104;SDS011;61464;51.472;5.712;2022-11-03T03:11:12;12.77;;;2.45;;
42104;SDS011;61464;51.472;5.712;2022-11-03T03:13:39;12.23;;;1.80;;
42104;SDS011;61464;51.472;5.712;2022-11-03T03:16:13;11.05;;;2.10;;
42104;SDS011;61464;51.472;5.712;2022-11-03T03:22:01;11.63;;;2.25;;
42104;SDS011;61464;51.472;5.712;2022-11-03T03:25:00;11.65;;;1.98;;
42104;SDS011;61464;51.472;5.712;2022-11-03T03:27:40;9.68;;;1.98;;
42104;SDS011;61464;51.472;5.712;2022-11-03T03:30:17;12.13;;;1.92;;
42104;SDS011;61464;51.472;5.712;2022-11-03T03:32:45;9.63;;;2.30;;
42104;SDS011;61464;51.472;5.712;2022-11-03T03:35:14;9.07;;;2.20;;
42104;SDS011;61464;51.472;5.712;2022-11-03T03:37:47;12.80;;;2.20;;
42104;SDS011;61464;51.472;5.712;2022-11-03T03:40:21;13.32;;;2.63;;
42104;SDS011;61464;51.472;5.712;2022-11-03T03:42:56;8.27;;;2.10;;
42104;SDS011;61464;51.472;5.712;2022-11-03T03:45:23;11.85;;;2.38;;
42104;SDS011;61464;51.472;5.712;2022-11-03T03:47:49;9.32;;;2.10;;
42104;SDS011;61464;51.472;5.712;2022-11-03T03:50:16;14.73;;;2.65;;
42104;SDS011;61464;51.472;5.712;2022-11-03T03:52:42;6.80;;;1.80;;
42104;SDS011;61464;51.472;5.712;2022-11-03T03:55:18;11.30;;;2.22;;
42104;SDS011;61464;51.472;5.712;2022-11-03T03:57:45;12.30;;;2.35;;
42104;SDS011;61464;51.472;5.712;2022-11-03T04:00:12;8.38;;;2.00;;
42104;SDS011;61464;51.472;5.712;2022-11-03T04:02:40;12.88;;;2.10;;
42104;SDS011;61464;51.472;5.712;2022-11-03T04:05:06;8.50;;;2.13;;
42104;SDS011;61464;51.472;5.712;2022-11-03T04:07:32;13.30;;;2.38;;
42104;SDS011;61464;51.472;5.712;2022-11-03T04:10:14;8.80;;;2.40;;
42104;SDS011;61464;51.472;5.712;2022-11-03T04:12:42;14.20;;;2.13;;
42104;SDS011;61464;51.472;5.712;2022-11-03T04:15:27;15.43;;;2.08;;
42104;SDS011;61464;51.472;5.712;2022-11-03T04:18:13;17.02;;;2.58;;
42104;SDS011;61464;51.472;5.712;2022-11-03T04:20:57;10.82;;;2.55;;
42104;SDS011;61464;51.472;5.712;2022-11-03T04:23:42;13.57;;;2.10;;
42104;SDS011;61464;51.472;5.712;2022-11-03T04:26:12;10.82;;;2.40;;
42104;SDS011;61464;51.472;5.712;2022-11-03T04:28:40;10.13;;;1.98;;
42104;SDS011;61464;51.472;5.712;2022-11-03T04:31:13;19.92;;;2.28;;
42104;SDS011;61464;51.472;5.712;2022-11-03T04:33:41;12.13;;;2.25;;
42104;SDS011;61464;51.472;5.712;2022-11-03T04:36:14;12.43;;;2.38;;
42104;SDS011;61464;51.472;5.712;2022-11-03T04:38:50;13.38;;;1.80;;
42104;SDS011;61464;51.472;5.712;2022-11-03T04:41:18;7.85;;;1.58;;
42104;SDS011;61464;51.472;5.712;2022-11-03T04:43:52;8.23;;;2.08;;
42104;SDS011;61464;51.472;5.712;2022-11-03T04:46:23;6.60;;;1.67;;
42104;SDS011;61464;51.472;5.712;2022-11-03T04:48:54;13.68;;;2.30;;
42104;SDS011;61464;51.472;5.712;2022-11-03T04:51:24;11.68;;;2.22;;
42104;SDS011;61464;51.472;5.712;2022-11-03T04:53:57;10.02;;;2.45;;
42104;SDS011;61464;51.472;5.712;2022-11-03T04:56:27;12.07;;;2.28;;
42104;SDS011;61464;51.472;5.712;2022-11-03T04:58:54;15.75;;;2.63;;
42104;SDS011;61464;51.472;5.712;2022-11-03T05:01:22;10.88;;;2.25;;
42104;SDS011;61464;51.472;5.712;2022-11-03T05:03:49;14.52;;;2.90;;
42104;SDS011;61464;51.472;5.712;2022-11-03T05:06:21;10.13;;;2.20;;
42104;SDS011;61464;51.472;5.712;2022-11-03T05:08:52;12.10;;;2.35;;
42104;SDS011;61464;51.472;5.712;2022-11-03T05:14:11;9.48;;;1.70;;
42104;SDS011;61464;51.472;5.712;2022-11-03T05:19:40;12.85;;;2.15;;
42104;SDS011;61464;51.472;5.712;2022-11-03T05:22:03;12.93;;;3.10;;
42104;SDS011;61464;51.472;5.712;2022-11-03T05:24:30;10.80;;;2.42;;
42104;SDS011;61464;51.472;5.712;2022-11-03T05:26:57;14.65;;;2.63;;
42104;SDS011;61464;51.472;5.712;2022-11-03T05:29:25;8.23;;;2.08;;
42104;SDS011;61464;51.472;5.712;2022-11-03T05:32:02;10.13;;;2.22;;
42104;SDS011;61464;51.472;5.712;2022-11-03T05:34:36;12.50;;;3.08;;
42104;SDS011;61464;51.472;5.712;2022-11-03T05:37:32;7.82;;;2.25;;
42104;SDS011;61464;51.472;5.712;2022-11-03T05:39:59;10.00;;;2.15;;
42104;SDS011;61464;51.472;5.712;2022-11-03T05:45:06;14.52;;;2.25;;
42104;SDS011;61464;51.472;5.712;2022-11-03T05:47:43;13.98;;;2.45;;
42104;SDS011;61464;51.472;5.712;2022-11-03T05:50:19;15.82;;;2.42;;
42104;SDS011;61464;51.472;5.712;2022-11-03T05:52:52;13.40;;;2.30;;
42104;SDS011;61464;51.472;5.712;2022-11-03T05:55:23;8.85;;;2.20;;
42104;SDS011;61464;51.472;5.712;2022-11-03T05:57:55;10.32;;;2.38;;
42104;SDS011;61464;51.472;5.712;2022-11-03T06:00:39;6.50;;;2.03;;
42104;SDS011;61464;51.472;5.712;2022-11-03T06:03:08;12.93;;;2.40;;
42104;SDS011;61464;51.472;5.712;2022-11-03T06:05:43;12.85;;;2.28;;
42104;SDS011;61464;51.472;5.712;2022-11-03T06:08:12;12.50;;;2.47;;
42104;SDS011;61464;51.472;5.712;2022-11-03T06:10:44;14.15;;;2.67;;
42104;SDS011;61464;51.472;5.712;2022-11-03T06:13:23;12.63;;;2.00;;
42104;SDS011;61464;51.472;5.712;2022-11-03T06:16:05;12.93;;;2.40;;
42104;SDS011;61464;51.472;5.712;2022-11-03T06:19:00;14.27;;;2.47;;
42104;SDS011;61464;51.472;5.712;2022-11-03T06:21:31;10.52;;;2.30;;
42104;SDS011;61464;51.472;5.712;2022-11-03T06:23:57;13.40;;;2.50;;
42104;SDS011;61464;51.472;5.712;2022-11-03T06:26:24;7.15;;;2.40;;
42104;SDS011;61464;51.472;5.712;2022-11-03T06:28:52;7.40;;;2.13;;
42104;SDS011;61464;51.472;5.712;2022-11-03T06:31:29;14.35;;;2.42;;
42104;SDS011;61464;51.472;5.712;2022-11-03T06:33:57;13.07;;;2.40;;
42104;SDS011;61464;51.472;5.712;2022-11-03T06:36:24;16.33;;;2.60;;
42104;SDS011;61464;51.472;5.712;2022-11-03T06:39:02;10.02;;;2.03;;
42104;SDS011;61464;51.472;5.712;2022-11-03T06:41:41;10.02;;;2.08;;
42104;SDS011;61464;51.472;5.712;2022-11-03T06:44:23;10.50;;;2.25;;
42104;SDS011;61464;51.472;5.712;2022-11-03T06:49:30;12.35;;;2.13;;
42104;SDS011;61464;51.472;5.712;2022-11-03T06:52:06;9.10;;;2.30;;
42104;SDS011;61464;51.472;5.712;2022-11-03T06:54:49;16.95;;;2.78;;
42104;SDS011;61464;51.472;5.712;2022-11-03T06:57:19;12.82;;;2.17;;
42104;SDS011;61464;51.472;5.712;2022-11-03T06:59:45;9.18;;;2.42;;
42104;SDS011;61464;51.472;5.712;2022-11-03T07:05:30;11.55;;;2.60;;
42104;SDS011;61464;51.472;5.712;2022-11-03T07:08:12;11.65;;;2.38;;
42104;SDS011;61464;51.472;5.712;2022-11-03T07:10:38;7.50;;;2.10;;
42104;SDS011;61464;51.472;5.712;2022-11-03T07:13:14;11.80;;;2.10;;
42104;SDS011;61464;51.472;5.712;2022-11-03T07:15:48;12.60;;;2.60;;
42104;SDS011;61464;51.472;5.712;2022-11-03T07:21:06;10.80;;;2.42;;
42104;SDS011;61464;51.472;5.712;2022-11-03T07:23:53;12.30;;;2.33;;
42104;SDS011;61464;51.472;5.712;2022-11-03T07:26:21;11.98;;;2.35;;
42104;SDS011;61464;51.472;5.712;2022-11-03T07:28:46;13.52;;;2.30;;
42104;SDS011;61464;51.472;5.712;2022-11-03T07:31:15;13.77;;;2.35;;
42104;SDS011;61464;51.472;5.712;2022-11-03T07:33:48;11.23;;;2.33;;
42104;SDS011;61464;51.472;5.712;2022-11-03T07:36:22;12.20;;;2.88;;
42104;SDS011;61464;51.472;5.712;2022-11-03T07:38:53;11.25;;;2.47;;
42104;SDS011;61464;51.472;5.712;2022-11-03T07:41:21;13.85;;;2.58;;
42104;SDS011;61464;51.472;5.712;2022-11-03T07:43:53;14.60;;;2.63;;
42104;SDS011;61464;51.472;5.712;2022-11-03T07:46:22;14.40;;;2.10;;
42104;SDS011;61464;51.472;5.712;2022-11-03T07:48:56;11.38;;;2.42;;
42104;SDS011;61464;51.472;5.712;2022-11-03T07:51:25;10.80;;;2.30;;
42104;SDS011;61464;51.472;5.712;2022-11-03T07:54:01;14.25;;;2.28;;
42104;SDS011;61464;51.472;5.712;2022-11-03T07:59:38;15.57;;;2.22;;
42104;SDS011;61464;51.472;5.712;2022-11-03T08:02:20;9.50;;;2.35;;
42104;SDS011;61464;51.472;5.712;2022-11-03T08:05:01;11.20;;;2.35;;
42104;SDS011;61464;51.472;5.712;2022-11-03T08:07:28;8.48;;;2.42;;
42104;SDS011;61464;51.472;5.712;2022-11-03T08:09:54;10.60;;;2.58;;
42104;SDS011;61464;51.472;5.712;2022-11-03T08:12:20;13.00;;;2.55;;
42104;SDS011;61464;51.472;5.712;2022-11-03T08:14:46;7.28;;;2.20;;
42104;SDS011;61464;51.472;5.712;2022-11-03T08:17:12;14.98;;;2.85;;
42104;SDS011;61464;51.472;5.712;2022-11-03T08:19:38;9.15;;;2.10;;
42104;SDS011;61464;51.472;5.712;2022-11-03T08:22:04;8.82;;;2.55;;
42104;SDS011;61464;51.472;5.712;2022-11-03T08:24:30;16.85;;;2.58;;
42104;SDS011;61464;51.472;5.712;2022-11-03T08:26:56;9.40;;;2.33;;
42104;SDS011;61464;51.472;5.712;2022-11-03T08:29:22;8.57;;;2.13;;
42104;SDS011;61464;51.472;5.712;2022-11-03T08:31:51;10.57;;;2.20;;
42104;SDS011;61464;51.472;5.712;2022-11-03T08:34:18;12.20;;;2.58;;
42104;SDS011;61464;51.472;5.712;2022-11-03T08:36:44;10.13;;;2.25;;
42104;SDS011;61464;51.472;5.712;2022-11-03T08:39:09;9.00;;;2.38;;
42104;SDS011;61464;51.472;5.712;2022-11-03T08:41:35;11.63;;;2.17;;
42104;SDS011;61464;51.472;5.712;2022-11-03T08:44:01;8.38;;;1.92;;
42104;SDS011;61464;51.472;5.712;2022-11-03T08:46:27;13.90;;;2.17;;
42104;SDS011;61464;51.472;5.712;2022-11-03T08:48:53;11.02;;;1.90;;
42104;SDS011;61464;51.472;5.712;2022-11-03T08:51:19;13.45;;;2.67;;
42104;SDS011;61464;51.472;5.712;2022-11-03T08:53:45;8.25;;;2.05;;
42104;SDS011;61464;51.472;5.712;2022-11-03T08:56:14;11.52;;;2.33;;
42104;SDS011;61464;51.472;5.712;2022-11-03T08:58:40;6.05;;;2.00;;
42104;SDS011;61464;51.472;5.712;2022-11-03T09:01:10;7.93;;;1.98;;
42104;SDS011;61464;51.472;5.712;2022-11-03T09:03:36;13.00;;;2.38;;
42104;SDS011;61464;51.472;5.712;2022-11-03T09:06:02;9.43;;;2.28;;
42104;SDS011;61464;51.472;5.712;2022-11-03T09:08:28;11.95;;;2.35;;
42104;SDS011;61464;51.472;5.712;2022-11-03T09:10:53;9.13;;;2.17;;
42104;SDS011;61464;51.472;5.712;2022-11-03T09:13:19;8.90;;;2.15;;
42104;SDS011;61464;51.472;5.712;2022-11-03T09:15:45;11.82;;;2.15;;
42104;SDS011;61464;51.472;5.712;2022-11-03T09:18:11;9.77;;;2.53;;
42104;SDS011;61464;51.472;5.712;2022-11-03T09:20:37;8.98;;;2.00;;
42104;SDS011;61464;51.472;5.712;2022-11-03T09:23:02;11.75;;;2.50;;
42104;SDS011;61464;51.472;5.712;2022-11-03T09:25:28;15.95;;;2.60;;
42104;SDS011;61464;51.472;5.712;2022-11-03T09:27:54;8.70;;;1.88;;
42104;SDS011;61464;51.472;5.712;2022-11-03T09:30:20;6.68;;;2.22;;
42104;SDS011;61464;51.472;5.712;2022-11-03T09:32:46;7.65;;;2.15;;
42104;SDS011;61464;51.472;5.712;2022-11-03T09:35:12;9.38;;;2.47;;
42104;SDS011;61464;51.472;5.712;2022-11-03T09:37:41;9.65;;;2.25;;
42104;SDS011;61464;51.472;5.712;2022-11-03T09:40:08;7.55;;;2.20;;
42104;SDS011;61464;51.472;5.712;2022-11-03T09:42:37;8.30;;;2.25;;
42104;SDS011;61464;51.472;5.712;2022-11-03T09:45:04;14.07;;;2.65;;
42104;SDS011;61464;51.472;5.712;2022-11-03T09:47:33;5.70;;;1.95;;
42104;SDS011;61464;51.472;5.712;2022-11-03T09:50:02;11.50;;;2.05;;
42104;SDS011;61464;51.472;5.712;2022-11-03T09:52:30;7.97;;;2.28;;
42104;SDS011;61464;51.472;5.712;2022-11-03T09:54:56;14.05;;;2.08;;
42104;SDS011;61464;51.472;5.712;2022-11-03T09:57:25;7.25;;;2.28;;
42104;SDS011;61464;51.472;5.712;2022-11-03T09:59:52;8.45;;;1.92;;
42104;SDS011;61464;51.472;5.712;2022-11-03T10:02:20;6.50;;;1.60;;
42104;SDS011;61464;51.472;5.712;2022-11-03T10:04:52;5.82;;;1.90;;
42104;SDS011;61464;51.472;5.712;2022-11-03T10:07:20;7.43;;;2.00;;
42104;SDS011;61464;51.472;5.712;2022-11-03T10:09:47;7.82;;;1.65;;
42104;SDS011;61464;51.472;5.712;2022-11-03T10:12:15;8.73;;;2.03;;
42104;SDS011;61464;51.472;5.712;2022-11-03T10:14:42;8.15;;;1.90;;
42104;SDS011;61464;51.472;5.712;2022-11-03T10:17:14;8.15;;;1.83;;
42104;SDS011;61464;51.472;5.712;2022-11-03T10:19:50;9.48;;;1.77;;
42104;SDS011;61464;51.472;5.712;2022-11-03T10:22:19;8.60;;;2.20;;
42104;SDS011;61464;51.472;5.712;2022-11-03T10:24:45;7.18;;;1.83;;
42104;SDS011;61464;51.472;5.712;2022-11-03T10:27:19;8.30;;;1.67;;
42104;SDS011;61464;51.472;5.712;2022-11-03T10:30:03;6.85;;;1.88;;
42104;SDS011;61464;51.472;5.712;2022-11-03T10:32:31;9.27;;;2.10;;
42104;SDS011;61464;51.472;5.712;2022-11-03T10:34:59;10.00;;;2.00;;
42104;SDS011;61464;51.472;5.712;2022-11-03T10:37:25;6.85;;;1.42;;
42104;SDS011;61464;51.472;5.712;2022-11-03T10:39:52;10.25;;;1.70;;
42104;SDS011;61464;51.472;5.712;2022-11-03T10:42:27;8.60;;;1.88;;
42104;SDS011;61464;51.472;5.712;2022-11-03T10:45:16;12.97;;;2.30;;
42104;SDS011;61464;51.472;5.712;2022-11-03T10:47:45;4.63;;;1.52;;
42104;SDS011;61464;51.472;5.712;2022-11-03T10:50:31;7.35;;;1.80;;
42104;SDS011;61464;51.472;5.712;2022-11-03T10:52:57;9.52;;;2.40;;
42104;SDS011;61464;51.472;5.712;2022-11-03T10:55:23;5.20;;;1.80;;
42104;SDS011;61464;51.472;5.712;2022-11-03T10:57:50;8.27;;;2.33;;
42104;SDS011;61464;51.472;5.712;2022-11-03T11:00:19;5.70;;;1.65;;
42104;SDS011;61464;51.472;5.712;2022-11-03T11:02:46;6.43;;;1.77;;
42104;SDS011;61464;51.472;5.712;2022-11-03T11:05:14;8.48;;;1.92;;
42104;SDS011;61464;51.472;5.712;2022-11-03T11:07:46;7.72;;;1.75;;
42104;SDS011;61464;51.472;5.712;2022-11-03T11:10:16;6.57;;;1.60;;
42104;SDS011;61464;51.472;5.712;2022-11-03T11:15:55;6.15;;;1.70;;
42104;SDS011;61464;51.472;5.712;2022-11-03T11:20:55;7.68;;;1.77;;
42104;SDS011;61464;51.472;5.712;2022-11-03T11:23:49;7.18;;;1.60;;
42104;SDS011;61464;51.472;5.712;2022-11-03T11:31:41;7.88;;;2.38;;
42104;SDS011;61464;51.472;5.712;2022-11-03T11:36:44;8.38;;;1.50;;
42104;SDS011;61464;51.472;5.712;2022-11-03T11:42:09;10.90;;;2.28;;
42104;SDS011;61464;51.472;5.712;2022-11-03T11:55:23;4.53;;;1.60;;
42104;SDS011;61464;51.472;5.712;2022-11-03T11:58:05;6.75;;;1.60;;
42104;SDS011;61464;51.472;5.712;2022-11-03T12:04:21;5.78;;;1.73;;
42104;SDS011;61464;51.472;5.712;2022-11-03T12:06:53;7.03;;;1.90;;
42104;SDS011;61464;51.472;5.712;2022-11-03T12:09:24;6.72;;;1.52;;
42104;SDS011;61464;51.472;5.712;2022-11-03T12:11:59;4.72;;;1.30;;
42104;SDS011;61464;51.472;5.712;2022-11-03T12:14:38;6.35;;;1.75;;
42104;SDS011;61464;51.472;5.712;2022-11-03T12:19:43;7.70;;;1.73;;
42104;SDS011;61464;51.472;5.712;2022-11-03T12:24:51;7.13;;;2.08;;
42104;SDS011;61464;51.472;5.712;2022-11-03T12:29:50;8.20;;;1.50;;
42104;SDS011;61464;51.472;5.712;2022-11-03T12:32:21;7.00;;;1.90;;
42104;SDS011;61464;51.472;5.712;2022-11-03T12:34:48;5.65;;;1.85;;
42104;SDS011;61464;51.472;5.712;2022-11-03T12:37:14;4.65;;;1.60;;
42104;SDS011;61464;51.472;5.712;2022-11-03T12:39:39;6.30;;;1.80;;
42104;SDS011;61464;51.472;5.712;2022-11-03T12:42:05;7.97;;;1.80;;
42104;SDS011;61464;51.472;5.712;2022-11-03T12:44:32;4.78;;;1.90;;
42104;SDS011;61464;51.472;5.712;2022-11-03T12:46:58;6.25;;;2.00;;
42104;SDS011;61464;51.472;5.712;2022-11-03T12:49:25;7.57;;;1.98;;
42104;SDS011;61464;51.472;5.712;2022-11-03T12:51:51;5.80;;;1.85;;
42104;SDS011;61464;51.472;5.712;2022-11-03T12:54:17;5.40;;;1.88;;
42104;SDS011;61464;51.472;5.712;2022-11-03T12:56:42;13.90;;;2.47;;
42104;SDS011;61464;51.472;5.712;2022-11-03T12:59:09;4.90;;;1.98;;
42104;SDS011;61464;51.472;5.712;2022-11-03T13:01:34;5.63;;;2.20;;
42104;SDS011;61464;51.472;5.712;2022-11-03T13:04:00;7.57;;;2.13;;
42104;SDS011;61464;51.472;5.712;2022-11-03T13:06:29;5.47;;;1.73;;
42104;SDS011;61464;51.472;5.712;2022-11-03T13:08:54;4.35;;;2.10;;
42104;SDS011;61464;51.472;5.712;2022-11-03T13:11:20;9.07;;;2.13;;
42104;SDS011;61464;51.472;5.712;2022-11-03T13:14:05;6.55;;;1.90;;
42104;SDS011;61464;51.472;5.712;2022-11-03T13:16:30;5.30;;;2.05;;
42104;SDS011;61464;51.472;5.712;2022-11-03T13:18:57;7.13;;;2.50;;
42104;SDS011;61464;51.472;5.712;2022-11-03T13:21:23;6.18;;;2.38;;
42104;SDS011;61464;51.472;5.712;2022-11-03T13:23:48;6.68;;;2.47;;
42104;SDS011;61464;51.472;5.712;2022-11-03T13:26:15;8.38;;;2.80;;
42104;SDS011;61464;51.472;5.712;2022-11-03T13:28:41;4.93;;;2.10;;
42104;SDS011;61464;51.472;5.712;2022-11-03T13:31:07;10.15;;;2.47;;
42104;SDS011;61464;51.472;5.712;2022-11-03T13:33:34;5.82;;;2.13;;
42104;SDS011;61464;51.472;5.712;2022-11-03T13:36:00;6.70;;;3.08;;
42104;SDS011;61464;51.472;5.712;2022-11-03T13:38:25;5.65;;;2.70;;
42104;SDS011;61464;51.472;5.712;2022-11-03T13:40:51;6.80;;;4.45;;
42104;SDS011;61464;51.472;5.712;2022-11-03T13:43:17;9.90;;;2.70;;
42104;SDS011;61464;51.472;5.712;2022-11-03T13:45:43;7.70;;;2.22;;
42104;SDS011;61464;51.472;5.712;2022-11-03T13:48:09;4.35;;;1.70;;
42104;SDS011;61464;51.472;5.712;2022-11-03T13:50:35;8.23;;;2.05;;
42104;SDS011;61464;51.472;5.712;2022-11-03T13:53:00;5.60;;;2.00;;
42104;SDS011;61464;51.472;5.712;2022-11-03T13:55:26;6.05;;;2.03;;
42104;SDS011;61464;51.472;5.712;2022-11-03T13:57:52;8.38;;;2.38;;
42104;SDS011;61464;51.472;5.712;2022-11-03T14:00:18;7.75;;;2.00;;
42104;SDS011;61464;51.472;5.712;2022-11-03T14:02:43;3.75;;;2.05;;
42104;SDS011;61464;51.472;5.712;2022-11-03T14:05:10;7.70;;;2.55;;
42104;SDS011;61464;51.472;5.712;2022-11-03T14:07:38;4.65;;;1.90;;
42104;SDS011;61464;51.472;5.712;2022-11-03T14:10:03;5.95;;;2.17;;
42104;SDS011;61464;51.472;5.712;2022-11-03T14:12:30;10.13;;;2.28;;
42104;SDS011;61464;51.472;5.712;2022-11-03T14:15:06;8.07;;;2.10;;
42104;SDS011;61464;51.472;5.712;2022-11-03T14:17:35;8.55;;;2.80;;
42104;SDS011;61464;51.472;5.712;2022-11-03T14:20:05;7.03;;;2.50;;
42104;SDS011;61464;51.472;5.712;2022-11-03T14:22:33;6.88;;;2.45;;
42104;SDS011;61464;51.472;5.712;2022-11-03T14:24:59;8.38;;;3.08;;
42104;SDS011;61464;51.472;5.712;2022-11-03T14:27:26;7.28;;;2.50;;
42104;SDS011;61464;51.472;5.712;2022-11-03T14:29:52;8.90;;;3.25;;
42104;SDS011;61464;51.472;5.712;2022-11-03T14:32:20;7.38;;;3.05;;
42104;SDS011;61464;51.472;5.712;2022-11-03T14:34:46;11.23;;;3.47;;
42104;SDS011;61464;51.472;5.712;2022-11-03T14:37:12;10.35;;;3.15;;
42104;SDS011;61464;51.472;5.712;2022-11-03T14:39:38;10.68;;;3.30;;
42104;SDS011;61464;51.472;5.712;2022-11-03T14:42:05;10.85;;;3.25;;
42104;SDS011;61464;51.472;5.712;2022-11-03T14:44:38;9.48;;;2.97;;
42104;SDS011;61464;51.472;5.712;2022-11-03T14:47:06;8.02;;;3.28;;
42104;SDS011;61464;51.472;5.712;2022-11-03T14:49:34;7.40;;;3.22;;
42104;SDS011;61464;51.472;5.712;2022-11-03T14:52:01;10.07;;;3.83;;
42104;SDS011;61464;51.472;5.712;2022-11-03T14:54:30;9.18;;;3.42;;
42104;SDS011;61464;51.472;5.712;2022-11-03T14:56:56;7.68;;;3.55;;
42104;SDS011;61464;51.472;5.712;2022-11-03T14:59:22;11.00;;;3.67;;
42104;SDS011;61464;51.472;5.712;2022-11-03T15:01:48;10.63;;;3.55;;
42104;SDS011;61464;51.472;5.712;2022-11-03T15:04:17;11.88;;;4.18;;
42104;SDS011;61464;51.472;5.712;2022-11-03T15:06:45;13.32;;;4.30;;
42104;SDS011;61464;51.472;5.712;2022-11-03T15:09:11;17.02;;;4.78;;
42104;SDS011;61464;51.472;5.712;2022-11-03T15:11:43;18.60;;;4.97;;
42104;SDS011;61464;51.472;5.712;2022-11-03T15:14:10;12.90;;;4.72;;
42104;SDS011;61464;51.472;5.712;2022-11-03T15:16:36;18.75;;;5.05;;
42104;SDS011;61464;51.472;5.712;2022-11-03T15:19:04;15.10;;;4.97;;
42104;SDS011;61464;51.472;5.712;2022-11-03T15:21:33;17.80;;;4.72;;
42104;SDS011;61464;51.472;5.712;2022-11-03T15:23:59;21.75;;;5.80;;
42104;SDS011;61464;51.472;5.712;2022-11-03T15:26:25;15.77;;;5.35;;
42104;SDS011;61464;51.472;5.712;2022-11-03T15:28:51;15.05;;;4.70;;
42104;SDS011;61464;51.472;5.712;2022-11-03T15:31:17;15.77;;;4.53;;
42104;SDS011;61464;51.472;5.712;2022-11-03T15:33:43;19.05;;;5.00;;
42104;SDS011;61464;51.472;5.712;2022-11-03T15:36:09;21.92;;;5.78;;
42104;SDS011;61464;51.472;5.712;2022-11-03T15:38:35;17.63;;;6.15;;
42104;SDS011;61464;51.472;5.712;2022-11-03T15:41:01;20.55;;;5.72;;
42104;SDS011;61464;51.472;5.712;2022-11-03T15:43:43;14.38;;;4.80;;
42104;SDS011;61464;51.472;5.712;2022-11-03T15:46:14;14.02;;;5.18;;
42104;SDS011;61464;51.472;5.712;2022-11-03T15:48:41;19.20;;;5.28;;
42104;SDS011;61464;51.472;5.712;2022-11-03T15:51:07;16.58;;;5.65;;
42104;SDS011;61464;51.472;5.712;2022-11-03T15:53:33;19.13;;;6.30;;
42104;SDS011;61464;51.472;5.712;2022-11-03T15:55:59;15.70;;;5.55;;
42104;SDS011;61464;51.472;5.712;2022-11-03T15:58:25;22.33;;;6.25;;
42104;SDS011;61464;51.472;5.712;2022-11-03T16:00:51;13.88;;;5.40;;
42104;SDS011;61464;51.472;5.712;2022-11-03T16:03:17;12.18;;;4.82;;
42104;SDS011;61464;51.472;5.712;2022-11-03T16:05:43;19.50;;;5.10;;
42104;SDS011;61464;51.472;5.712;2022-11-03T16:08:08;14.38;;;5.15;;
42104;SDS011;61464;51.472;5.712;2022-11-03T16:10:34;17.25;;;5.00;;
42104;SDS011;61464;51.472;5.712;2022-11-03T16:13:00;13.57;;;5.20;;
42104;SDS011;61464;51.472;5.712;2022-11-03T16:15:26;10.07;;;4.07;;
42104;SDS011;61464;51.472;5.712;2022-11-03T16:17:51;10.98;;;4.43;;
42104;SDS011;61464;51.472;5.712;2022-11-03T16:20:17;14.95;;;4.35;;
42104;SDS011;61464;51.472;5.712;2022-11-03T16:22:44;9.52;;;4.40;;
42104;SDS011;61464;51.472;5.712;2022-11-03T16:25:10;10.05;;;4.22;;
42104;SDS011;61464;51.472;5.712;2022-11-03T16:27:36;11.18;;;4.00;;
42104;SDS011;61464;51.472;5.712;2022-11-03T16:30:01;5.80;;;3.80;;
42104;SDS011;61464;51.472;5.712;2022-11-03T16:32:28;8.38;;;3.58;;
42104;SDS011;61464;51.472;5.712;2022-11-03T16:34:54;8.85;;;4.68;;
42104;SDS011;61464;51.472;5.712;2022-11-03T16:37:20;10.52;;;4.57;;
42104;SDS011;61464;51.472;5.712;2022-11-03T16:39:49;10.38;;;5.30;;
42104;SDS011;61464;51.472;5.712;2022-11-03T16:42:14;9.45;;;5.05;;
42104;SDS011;61464;51.472;5.712;2022-11-03T16:44:40;10.65;;;4.90;;
42104;SDS011;61464;51.472;5.712;2022-11-03T16:47:06;10.02;;;4.78;;
42104;SDS011;61464;51.472;5.712;2022-11-03T16:49:32;11.80;;;4.90;;